Time;durP1;ratioP1;P1;durP2;ratioP2;P2;SDS_P1;SDS_P2;PMS_P1;PMS_P2;Temp;Humidity;BMP_temperature;BMP_pressure;BME280_temperature;BME280_humidity;BME280_pressure;Samples;Min_cycle;Max_cycle;Signal;HPM_P1;HPM_P2
2021/03/06 00:02:21;;;;;;;8.70;4.97;;;;;;;;;;5075351;28;20179;-72
2021/03/06 00:04:47;;;;;;;7.80;4.90;;;;;;;;;;5075184;28;20397;-72
2021/03/06 00:07:13;;;;;;;8.43;4.63;;;;;;;;;;5075125;28;20389;-72
2021/03/06 00:09:39;;;;;;;6.03;3.53;;;-1.20;1.00;;;;;;5045811;28;20411;-72
2021/03/06 00:12:06;;;;;;;7.17;4.70;;;;;;;;;;5038420;28;20195;-72
2021/03/06 00:14:32;;;;;;;7.22;3.78;;;-1.30;1.00;;;;;;5041984;28;20579;-72
2021/03/06 00:16:59;;;;;;;6.57;3.88;;;-1.30;1.00;;;;;;5035334;28;20171;-72
2021/03/06 00:19:24;;;;;;;6.93;3.83;;;-1.30;1.00;;;;;;5034682;28;20573;-72
2021/03/06 00:21:50;;;;;;;8.87;4.60;;;;;;;;;;5035127;28;20188;-72
2021/03/06 00:24:16;;;;;;;7.15;4.65;;;-1.40;1.00;;;;;;5034229;28;20163;-72
2021/03/06 00:26:42;;;;;;;14.43;4.43;;;;;;;;;;5034451;28;20613;-72
2021/03/06 00:29:08;;;;;;;9.90;5.15;;;-1.40;1.00;;;;;;5038168;28;20853;-72
2021/03/06 00:31:37;;;;;;;7.27;5.30;;;-1.40;1.00;;;;;;5038913;28;20176;-75
2021/03/06 00:34:04;;;;;;;8.10;5.05;;;-1.40;1.00;;;;;;5035790;28;20194;-76
2021/03/06 00:36:30;;;;;;;7.90;4.90;;;;;;;;;;5054248;28;20156;-76
2021/03/06 00:38:56;;;;;;;8.55;5.10;;;;;;;;;;5054688;28;20221;-76
2021/03/06 00:41:22;;;;;;;9.40;5.00;;;-1.40;1.00;;;;;;5054397;28;20192;-76
2021/03/06 00:43:48;;;;;;;13.23;4.67;;;;;;;;;;5054361;28;20201;-76
2021/03/06 00:46:14;;;;;;;9.80;5.05;;;;;;;;;;5054423;28;20416;-76
2021/03/06 00:48:40;;;;;;;10.45;5.65;;;;;;;;;;5055052;28;20555;-76
2021/03/06 00:51:07;;;;;;;6.83;4.70;;;;;;;;;;5054415;28;20156;-76
2021/03/06 00:53:36;;;;;;;11.77;5.63;;;-1.50;1.00;;;;;;5054144;28;20858;-76
2021/03/06 00:56:02;;;;;;;9.07;5.15;;;-1.70;1.00;;;;;;5053910;28;20164;-76
2021/03/06 00:58:28;;;;;;;9.18;5.22;;;-1.50;1.00;;;;;;5034160;28;20648;-76
2021/03/06 01:00:54;;;;;;;13.30;6.17;;;;;;;;;;5048386;28;20203;-76
2021/03/06 01:03:20;;;;;;;8.15;4.97;;;-1.50;1.00;;;;;;5054391;28;20163;-72
2021/03/06 01:05:46;;;;;;;9.95;5.20;;;-1.60;1.00;;;;;;5053954;28;20179;-72
2021/03/06 01:08:11;;;;;;;11.00;5.00;;;-1.60;1.00;;;;;;5053982;28;20191;-72
2021/03/06 01:10:40;;;;;;;8.17;5.20;;;-1.60;1.00;;;;;;5053806;28;20206;-72
2021/03/06 01:13:06;;;;;;;10.02;5.40;;;-1.60;1.00;;;;;;5037158;28;20184;-72
2021/03/06 01:15:33;;;;;;;10.75;5.72;;;-1.60;1.00;;;;;;5039041;28;20192;-72
2021/03/06 01:17:59;;;;;;;7.07;4.60;;;-1.60;1.00;;;;;;5034109;28;20156;-72
2021/03/06 01:20:25;;;;;;;9.93;5.90;;;;;;;;;;5032195;28;20494;-72
2021/03/06 01:22:51;;;;;;;10.05;5.75;;;-1.60;1.00;;;;;;5033711;28;20621;-72
2021/03/06 01:25:17;;;;;;;11.83;6.27;;;-1.70;1.00;;;;;;5033449;28;20195;-72
2021/03/06 01:27:43;;;;;;;11.57;5.40;;;-1.70;1.00;;;;;;5033559;28;20533;-72
2021/03/06 01:30:10;;;;;;;9.85;5.13;;;-1.70;1.00;;;;;;5033505;28;20164;-72
2021/03/06 01:32:36;;;;;;;7.20;4.63;;;;;;;;;;5033754;28;20192;-72
2021/03/06 01:35:09;;;;;;;11.73;5.20;;;-1.70;1.00;;;;;;5042929;28;20179;-72
2021/03/06 01:37:35;;;;;;;10.98;5.35;;;-1.70;1.00;;;;;;5051033;28;20175;-72
2021/03/06 01:40:05;;;;;;;11.38;5.60;;;-1.70;1.00;;;;;;5052922;28;20242;-72
2021/03/06 01:42:31;;;;;;;8.48;4.90;;;;;;;;;;5036887;28;20200;-72
2021/03/06 01:44:57;;;;;;;10.30;5.37;;;;;;;;;;5035030;28;20164;-72
2021/03/06 01:47:23;;;;;;;10.80;5.50;;;;;;;;;;5052317;28;20902;-75
2021/03/06 01:49:48;;;;;;;12.55;5.95;;;-1.70;1.00;;;;;;5052815;28;20405;-76
2021/03/06 01:52:15;;;;;;;8.83;5.20;;;-1.70;1.00;;;;;;5053149;28;20156;-76
2021/03/06 01:54:43;;;;;;;12.68;5.60;;;-1.70;1.00;;;;;;5051414;28;20175;-76
2021/03/06 01:57:08;;;;;;;7.75;5.25;;;-1.70;1.00;;;;;;5038782;28;20164;-76
2021/03/06 01:59:34;;;;;;;10.93;6.13;;;;;;;;;;5049486;28;20635;-76
2021/03/06 02:02:00;;;;;;;10.88;5.40;;;;;;;;;;5048530;28;20736;-76
2021/03/06 02:04:27;;;;;;;8.73;4.90;;;-1.70;1.00;;;;;;5033478;28;20227;-76
2021/03/06 02:06:54;;;;;;;10.93;5.65;;;-1.70;1.00;;;;;;5033096;28;20394;-76
2021/03/06 02:09:19;;;;;;;9.02;5.25;;;-1.70;1.00;;;;;;5032888;28;20625;-76
2021/03/06 02:12:22;;;;;;;10.90;5.90;;;-1.70;1.00;;;;;;5036870;28;20182;-76
2021/03/06 02:15:05;;;;;;;11.43;5.30;;;-1.70;1.00;;;;;;5042618;28;20196;-76
2021/03/06 02:17:53;;;;;;;6.88;4.50;;;-1.80;1.00;;;;;;5032952;28;20172;-75
2021/03/06 02:20:54;;;;;;;8.27;4.97;;;-1.80;1.00;;;;;;5032524;28;20172;-72
2021/03/06 02:24:11;;;;;;;16.02;5.40;;;-1.80;1.00;;;;;;5010722;28;20192;-72
2021/03/06 02:27:02;;;;;;;8.63;4.95;;;-1.90;1.00;;;;;;4994137;28;20634;-72
2021/03/06 02:29:40;;;;;;;10.93;4.57;;;-1.90;1.00;;;;;;5010800;28;20172;-72
2021/03/06 02:32:19;;;;;;;9.32;4.88;;;-1.90;1.00;;;;;;5010749;28;20153;-72
2021/03/06 02:34:50;;;;;;;9.20;4.40;;;-1.90;1.00;;;;;;5010881;28;20276;-72
2021/03/06 02:37:20;;;;;;;6.85;4.32;;;-1.90;1.00;;;;;;5010694;28;20654;-72
2021/03/06 02:39:49;;;;;;;10.32;5.07;;;-1.90;1.00;;;;;;4993652;28;20189;-72
2021/03/06 02:42:19;;;;;;;7.25;4.95;;;-1.90;1.00;;;;;;5010403;28;20193;-72
2021/03/06 02:44:45;;;;;;;7.57;4.63;;;-1.90;1.00;;;;;;5010721;28;20220;-72
2021/03/06 02:47:12;;;;;;;7.10;4.57;;;-1.90;1.00;;;;;;5020851;28;20228;-72
2021/03/06 02:49:37;;;;;;;7.72;4.45;;;-1.90;1.00;;;;;;5014227;28;20227;-72
2021/03/06 02:52:04;;;;;;;11.07;4.50;;;;;;;;;;5014465;28;20208;-72
2021/03/06 02:54:29;;;;;;;8.20;4.43;;;-1.90;1.00;;;;;;5014203;28;20193;-72
2021/03/06 02:56:55;;;;;;;8.77;4.90;;;;;;;;;;5014533;28;20170;-72
2021/03/06 02:59:34;;;;;;;8.70;4.90;;;-1.90;1.00;;;;;;5019658;28;20218;-72
2021/03/06 03:02:00;;;;;;;9.75;4.53;;;;;;;;;;5035053;28;20318;-72
2021/03/06 03:04:54;;;;;;;6.17;3.90;;;-2.00;1.00;;;;;;5036830;28;20629;-76
2021/03/06 03:07:48;;;;;;;6.97;3.88;;;-2.00;1.00;;;;;;5036381;28;20446;-76
2021/03/06 03:10:15;;;;;;;6.68;4.05;;;-2.00;1.00;;;;;;5034862;28;20165;-76
2021/03/06 03:12:54;;;;;;;9.45;4.70;;;-2.00;1.00;;;;;;5036104;28;20501;-76
2021/03/06 03:15:36;;;;;;;8.20;4.70;;;-2.00;1.00;;;;;;5035205;28;20711;-76
2021/03/06 03:18:04;;;;;;;7.18;4.78;;;-2.00;1.00;;;;;;5054233;28;20187;-76
2021/03/06 03:20:43;;;;;;;13.07;4.88;;;-2.00;1.00;;;;;;5055299;28;20267;-76
2021/03/06 03:23:14;;;;;;;7.15;4.45;;;-2.00;1.00;;;;;;5056026;28;20166;-76
2021/03/06 03:25:41;;;;;;;7.28;4.47;;;;;;;;;;5055648;28;20152;-76
2021/03/06 03:28:09;;;;;;;6.82;4.32;;;-2.00;1.00;;;;;;5055873;28;20176;-76
2021/03/06 03:30:36;;;;;;;7.82;4.18;;;-2.10;1.00;;;;;;5055785;28;20152;-76
2021/03/06 03:33:04;;;;;;;9.32;5.32;;;-2.10;1.00;;;;;;5055803;28;20186;-76
2021/03/06 03:35:32;;;;;;;7.65;4.63;;;-2.10;1.00;;;;;;5053644;28;20225;-72
2021/03/06 03:37:59;;;;;;;6.65;4.25;;;-2.10;1.00;;;;;;5055373;28;20172;-72
2021/03/06 03:40:26;;;;;;;15.20;5.03;;;;;;;;;;5055907;28;20153;-72
2021/03/06 03:42:52;;;;;;;8.63;4.85;;;-2.10;1.00;;;;;;5055473;28;20156;-72
2021/03/06 03:45:20;;;;;;;7.65;4.38;;;-2.10;1.00;;;;;;5050788;28;20160;-72
2021/03/06 03:47:46;;;;;;;8.10;4.50;;;-2.10;1.00;;;;;;5035550;28;20196;-72
2021/03/06 03:50:17;;;;;;;8.07;4.83;;;-2.10;1.00;;;;;;5035956;28;20204;-76
2021/03/06 03:52:48;;;;;;;5.80;3.95;;;-2.20;1.00;;;;;;5035620;28;20470;-76
2021/03/06 03:55:14;;;;;;;13.57;5.32;;;-2.20;1.00;;;;;;5035575;28;20157;-76
2021/03/06 03:57:40;;;;;;;7.03;3.67;;;;;;;;;;5038905;28;20475;-76
2021/03/06 04:00:14;;;;;;;11.23;5.25;;;-2.20;1.00;;;;;;5052876;28;20172;-76
2021/03/06 04:02:40;;;;;;;5.75;3.72;;;-2.20;1.00;;;;;;5055224;28;20184;-76
2021/03/06 04:05:07;;;;;;;5.77;4.00;;;-2.30;1.00;;;;;;5038398;28;20625;-76
2021/03/06 04:07:53;;;;;;;9.35;4.57;;;-2.30;1.00;;;;;;5035173;28;20656;-75
2021/03/06 04:10:21;;;;;;;7.68;4.28;;;-2.30;1.00;;;;;;5034979;28;20188;-76
2021/03/06 04:12:48;;;;;;;6.68;4.05;;;-2.40;1.00;;;;;;5035057;28;20161;-76
2021/03/06 04:15:15;;;;;;;3.90;3.20;;;-2.40;1.00;;;;;;5037114;28;20184;-76
2021/03/06 04:17:41;;;;;;;9.02;4.47;;;-2.40;1.00;;;;;;5036045;28;20227;-76
2021/03/06 04:20:09;;;;;;;8.88;4.25;;;-2.40;1.00;;;;;;5036094;28;20245;-72
2021/03/06 04:22:35;;;;;;;6.22;3.75;;;-2.40;1.00;;;;;;5034772;28;20343;-72
2021/03/06 04:25:01;;;;;;;6.23;3.70;;;;;;;;;;5034728;28;20160;-72
2021/03/06 04:27:27;;;;;;;7.00;4.10;;;-2.50;1.00;;;;;;5033618;28;20396;-72
2021/03/06 04:29:53;;;;;;;6.50;3.77;;;;;;;;;;5034777;28;20651;-72
2021/03/06 04:32:19;;;;;;;8.85;4.63;;;-2.60;1.00;;;;;;5033172;28;20184;-72
2021/03/06 04:34:45;;;;;;;6.93;3.97;;;;;;;;;;5048255;28;20175;-76
2021/03/06 04:37:11;;;;;;;9.20;4.80;;;;;;;;;;5046684;28;20422;-76
2021/03/06 04:39:37;;;;;;;8.15;4.40;;;-2.70;1.00;;;;;;5043721;28;20782;-76
2021/03/06 04:42:03;;;;;;;10.57;4.10;;;;;;;;;;5040044;28;20192;-76
2021/03/06 04:44:28;;;;;;;7.00;4.53;;;-2.70;1.00;;;;;;5054512;28;20170;-76
2021/03/06 04:46:54;;;;;;;9.20;4.00;;;;;;;;;;5036318;28;20164;-76
2021/03/06 04:49:20;;;;;;;10.38;4.35;;;;;;;;;;5033688;28;20172;-72
2021/03/06 04:51:46;;;;;;;6.72;4.30;;;-2.90;1.00;;;;;;5034383;28;20164;-72
2021/03/06 04:54:12;;;;;;;8.27;4.40;;;;;;;;;;5038887;28;20167;-72
2021/03/06 04:56:38;;;;;;;6.63;3.70;;;;;;;;;;5054025;28;20456;-72
2021/03/06 04:59:04;;;;;;;7.60;3.95;;;-2.80;1.00;;;;;;5054034;28;20860;-72
2021/03/06 05:01:30;;;;;;;8.50;4.60;;;;;;;;;;5053913;28;20183;-72
2021/03/06 05:03:56;;;;;;;4.40;3.97;;;;;;;;;;5053407;28;20234;-72
2021/03/06 05:06:22;;;;;;;8.40;4.85;;;-2.90;1.00;;;;;;5054379;28;20199;-72
2021/03/06 05:08:48;;;;;;;8.20;4.63;;;;;;;;;;5053947;28;20183;-72
2021/03/06 05:11:13;;;;;;;7.75;4.13;;;-2.90;1.00;;;;;;5053636;28;20152;-72
2021/03/06 05:13:39;;;;;;;8.17;4.57;;;;;;;;;;5053808;28;20180;-72
2021/03/06 05:16:05;;;;;;;6.00;4.17;;;-3.00;1.00;;;;;;5053323;28;20171;-72
2021/03/06 05:18:32;;;;;;;7.78;4.25;;;-3.00;1.00;;;;;;5051082;28;20441;-72
2021/03/06 05:20:58;;;;;;;5.15;3.83;;;-3.00;1.00;;;;;;5053964;28;20195;-76
2021/03/06 05:23:24;;;;;;;7.93;4.03;;;-3.10;1.00;;;;;;5053688;28;20205;-75
2021/03/06 05:25:50;;;;;;;8.65;4.10;;;-3.10;1.00;;;;;;5052462;28;20213;-76
2021/03/06 05:28:19;;;;;;;5.67;3.87;;;-3.10;1.00;;;;;;5053668;28;20156;-76
2021/03/06 05:30:46;;;;;;;7.07;4.05;;;-3.10;1.00;;;;;;5048837;28;20168;-76
2021/03/06 05:33:13;;;;;;;6.90;4.15;;;-3.10;1.00;;;;;;5033415;28;20592;-76
2021/03/06 05:35:39;;;;;;;5.93;4.18;;;-3.20;1.00;;;;;;5033855;28;20163;-72
2021/03/06 05:38:05;;;;;;;7.60;3.77;;;;;;;;;;5033480;28;20157;-77
2021/03/06 05:40:37;;;;;;;8.43;4.70;;;-3.20;1.00;;;;;;5033727;28;20164;-72
2021/03/06 05:43:03;;;;;;;8.07;4.47;;;;;;;;;;5033349;28;20400;-72
2021/03/06 05:45:30;;;;;;;7.78;4.25;;;-3.20;1.00;;;;;;5039401;28;20648;-72
2021/03/06 05:47:58;;;;;;;7.20;4.68;;;-3.20;1.00;;;;;;5038897;28;20190;-72
2021/03/06 05:50:24;;;;;;;6.40;4.05;;;-3.20;1.00;;;;;;5033708;28;20164;-72
2021/03/06 05:52:51;;;;;;;5.88;4.30;;;-3.20;1.00;;;;;;5033146;28;20153;-72
2021/03/06 05:55:18;;;;;;;6.70;4.00;;;-3.20;1.00;;;;;;5033259;28;20159;-72
2021/03/06 05:57:44;;;;;;;14.75;5.45;;;-3.20;1.00;;;;;;5043259;28;20183;-72
2021/03/06 06:00:11;;;;;;;16.38;6.45;;;-3.20;1.00;;;;;;5052861;28;20583;-72
2021/03/06 06:02:38;;;;;;;14.05;6.70;;;-3.30;1.00;;;;;;5051061;28;20698;-72
2021/03/06 06:05:05;;;;;;;18.38;6.88;;;-3.30;1.00;;;;;;5052133;28;20258;-72
2021/03/06 06:07:34;;;;;;;15.57;5.28;;;-3.30;1.00;;;;;;5052935;28;20170;-72
2021/03/06 06:10:00;;;;;;;7.55;4.82;;;;;;;;;;5052478;28;20655;-72
2021/03/06 06:12:26;;;;;;;5.78;4.20;;;;;;;;;;5052789;28;20163;-72
2021/03/06 06:14:52;;;;;;;10.48;4.60;;;-3.20;1.00;;;;;;5052986;28;20186;-72
2021/03/06 06:17:18;;;;;;;8.40;3.93;;;-3.20;1.00;;;;;;5044230;28;20188;-72
2021/03/06 06:19:44;;;;;;;7.35;4.40;;;-3.10;1.00;;;;;;5036034;28;20184;-72
2021/03/06 06:22:20;;;;;;;9.20;5.00;;;-3.10;1.00;;;;;;5044205;28;20532;-75
2021/03/06 06:24:48;;;;;;;9.98;5.00;;;-3.10;1.00;;;;;;5049858;28;20160;-76
2021/03/06 06:27:34;;;;;;;5.90;4.00;;;-3.00;1.00;;;;;;5052223;28;20163;-76
2021/03/06 06:30:02;;;;;;;7.43;4.40;;;-3.00;1.00;;;;;;5052806;28;20152;-76
2021/03/06 06:32:44;;;;;;;7.13;4.80;;;-2.90;1.00;;;;;;5047067;28;20198;-76
2021/03/06 06:35:12;;;;;;;9.20;5.18;;;-2.80;1.00;;;;;;5052870;28;20238;-72
2021/03/06 06:37:38;;;;;;;6.22;3.97;;;-2.80;1.00;;;;;;5052655;28;20566;-76
2021/03/06 06:40:19;;;;;;;7.32;4.78;;;-2.70;1.00;;;;;;5052404;28;20242;-76
2021/03/06 06:42:45;;;;;;;15.70;4.65;;;-2.70;1.00;;;;;;5051109;28;20195;-76
2021/03/06 06:45:11;;;;;;;9.60;5.17;;;-2.60;1.00;;;;;;5048939;28;20167;-76
2021/03/06 06:47:40;;;;;;;5.93;4.50;;;-2.60;1.00;;;;;;5049452;28;20190;-76
2021/03/06 06:50:11;;;;;;;7.00;4.68;;;-2.40;1.00;;;;;;5051001;28;20267;-76
2021/03/06 06:52:44;;;;;;;7.47;4.68;;;-2.40;1.00;;;;;;5052896;28;20175;-76
2021/03/06 06:55:11;;;;;;;9.30;4.90;;;-2.30;1.00;;;;;;5036772;28;20548;-76
2021/03/06 06:57:51;;;;;;;8.82;4.70;;;-2.20;1.00;;;;;;5040339;28;20305;-76
2021/03/06 07:00:18;;;;;;;7.70;4.05;;;-2.10;1.00;;;;;;5039416;28;20175;-77
2021/03/06 07:02:55;;;;;;;6.25;4.60;;;-2.00;1.00;;;;;;5036954;28;20193;-76
2021/03/06 07:05:37;;;;;;;6.90;4.38;;;-1.90;1.00;;;;;;5035894;28;20156;-76
2021/03/06 07:08:08;;;;;;;9.15;4.50;;;-1.70;1.00;;;;;;5051064;28;20175;-77
2021/03/06 07:10:35;;;;;;;7.93;4.30;;;-1.60;1.00;;;;;;5052203;28;20287;-76
2021/03/06 07:13:03;;;;;;;8.95;5.13;;;-1.50;1.00;;;;;;5038198;28;20189;-77
2021/03/06 07:15:30;;;;;;;8.43;4.72;;;-1.40;1.00;;;;;;5032349;28;20647;-76
2021/03/06 07:17:58;;;;;;;11.73;4.80;;;-1.40;1.00;;;;;;5032236;28;20179;-76
2021/03/06 07:20:24;;;;;;;8.45;4.13;;;-1.20;1.00;;;;;;5034626;28;20649;-76
2021/03/06 07:22:51;;;;;;;2.40;1.90;;;-1.00;1.00;;;;;;5041166;28;20211;-76
2021/03/06 07:25:17;;;;;;;11.40;4.68;;;-0.90;1.00;;;;;;5046396;28;20164;-76
2021/03/06 07:27:43;;;;;;;5.43;4.25;;;-0.80;1.00;;;;;;5031497;28;20184;-76
2021/03/06 07:30:11;;;;;;;8.30;4.25;;;-0.80;1.00;;;;;;5039495;28;20174;-77
2021/03/06 07:32:42;;;;;;;4.57;2.75;;;-0.70;1.00;;;;;;5032262;28;20188;-77
2021/03/06 07:35:10;;;;;;;5.93;2.80;;;-0.50;1.00;;;;;;5043489;28;20179;-77
2021/03/06 07:37:40;;;;;;;3.45;2.30;;;-0.40;1.00;;;;;;5053987;28;20178;-77
2021/03/06 07:40:11;;;;;;;2.65;1.92;;;-0.30;1.00;;;;;;5055550;28;20168;-80
2021/03/06 07:42:47;;;;;;;3.97;2.15;;;-0.10;1.00;;;;;;5051326;28;20191;-79
2021/03/06 07:45:19;;;;;;;6.68;1.88;;;-0.20;1.00;;;;;;5034824;28;20559;-77
2021/03/06 07:47:49;;;;;;;2.00;1.70;;;0.10;1.00;;;;;;5044180;28;20164;-77
2021/03/06 07:50:19;;;;;;;1.95;1.65;;;0.20;1.00;;;;;;5054118;28;20159;-77
2021/03/06 07:53:03;;;;;;;5.43;2.78;;;0.30;1.00;;;;;;5039832;28;20192;-77
2021/03/06 07:55:57;;;;;;;5.30;2.78;;;0.50;1.00;;;;;;5055751;28;20176;-77
2021/03/06 07:58:27;;;;;;;2.60;2.13;;;0.70;1.00;;;;;;5047056;28;20176;-77
2021/03/06 08:00:57;;;;;;;1.88;1.77;;;0.90;1.00;;;;;;5047658;28;20331;-77
2021/03/06 08:03:26;;;;;;;3.25;2.17;;;;;;;;;;5048875;28;20172;-77
2021/03/06 08:05:57;;;;;;;3.08;2.70;;;1.00;1.00;;;;;;5038358;28;20183;-77
2021/03/06 08:08:32;;;;;;;4.45;2.70;;;1.10;1.00;;;;;;5036744;28;20173;-72
2021/03/06 08:11:14;;;;;;;3.38;2.72;;;1.10;1.00;;;;;;5044167;28;20187;-72
2021/03/06 08:13:56;;;;;;;3.95;1.67;;;1.20;1.00;;;;;;5053721;28;20187;-72
2021/03/06 08:16:22;;;;;;;7.18;3.10;;;1.40;1.00;;;;;;5034698;28;20271;-72
2021/03/06 08:18:53;;;;;;;2.00;1.73;;;1.50;1.00;;;;;;5034376;28;20593;-72
2021/03/06 08:21:49;;;;;;;5.30;2.28;;;1.60;1.00;;;;;;5043097;28;20208;-72
2021/03/06 08:24:14;;;;;;;3.15;2.50;;;1.70;1.00;;;;;;5006640;28;20279;-72
2021/03/06 08:26:40;;;;;;;3.63;1.60;;;;;;;;;;5012485;28;20296;-72
2021/03/06 08:29:39;;;;;;;5.10;2.60;;;1.80;1.00;;;;;;5012208;28;20193;-72
2021/03/06 08:32:23;;;;;;;4.93;2.45;;;1.90;1.00;;;;;;4954075;28;20541;-72
2021/03/06 08:34:54;;;;;;;2.22;1.60;;;2.10;1.00;;;;;;4953415;29;20266;-73
2021/03/06 08:37:19;;;;;;;7.32;1.80;;;2.10;1.00;;;;;;4954160;29;20175;-77
2021/03/06 08:39:49;;;;;;;9.20;2.70;;;2.30;1.00;;;;;;4951960;29;20577;-78
2021/03/06 08:42:19;;;;;;;4.95;2.60;;;2.40;1.00;;;;;;4953857;29;20225;-77
2021/03/06 08:44:54;;;;;;;7.78;3.15;;;2.40;1.00;;;;;;4952709;29;20171;-77
2021/03/06 08:47:28;;;;;;;5.18;2.45;;;2.60;1.00;;;;;;4937227;29;20186;-77
2021/03/06 08:49:56;;;;;;;2.88;2.50;;;2.80;1.00;;;;;;4953881;29;20178;-77
2021/03/06 08:52:23;;;;;;;2.58;2.13;;;2.70;1.00;;;;;;4954167;29;20175;-72
2021/03/06 08:54:49;;;;;;;13.88;4.22;;;;;;;;;;4952568;29;20199;-72
2021/03/06 08:57:26;;;;;;;3.47;2.03;;;3.00;1.00;;;;;;4953428;29;20171;-73
2021/03/06 08:59:52;;;;;;;4.78;3.03;;;;;;;;;;4955311;28;20368;-72
2021/03/06 09:02:26;;;;;;;6.00;3.15;;;3.10;1.00;;;;;;5011927;28;20209;-73
2021/03/06 09:05:00;;;;;;;4.00;2.75;;;3.20;1.00;;;;;;5031641;28;20625;-72
2021/03/06 09:07:33;;;;;;;4.43;2.95;;;3.20;1.00;;;;;;5029886;28;20666;-77
2021/03/06 09:10:28;;;;;;;4.15;2.53;;;3.20;1.00;;;;;;5054065;28;20549;-79
2021/03/06 09:13:01;;;;;;;4.40;2.63;;;;;;;;;;5047625;28;20624;-79
2021/03/06 09:15:33;;;;;;;4.30;2.40;;;3.60;1.00;;;;;;5045607;28;20247;-79
2021/03/06 09:17:59;;;;;;;8.48;3.20;;;;;;;;;;5044966;28;20213;-79
2021/03/06 09:20:29;;;;;;;4.53;3.22;;;3.90;1.00;;;;;;5051984;28;20179;-79
2021/03/06 09:22:54;;;;;;;5.50;2.97;;;;;;;;;;5036561;28;20692;-73
2021/03/06 09:25:33;;;;;;;7.63;3.30;;;4.10;1.00;;;;;;5043696;28;20168;-73
2021/03/06 09:27:59;;;;;;;5.93;3.00;;;;;;;;;;5050623;28;20437;-73
2021/03/06 09:30:35;;;;;;;3.22;2.70;;;4.20;1.00;;;;;;5047704;28;20710;-73
2021/03/06 09:33:01;;;;;;;7.13;3.08;;;;;;;;;;5033540;28;20577;-73
2021/03/06 09:35:27;;;;;;;6.20;3.22;;;;;;;;;;5042528;28;20591;-73
2021/03/06 09:38:07;;;;;;;3.90;2.35;;;4.60;1.00;;;;;;5053752;28;20555;-81
2021/03/06 09:40:39;;;;;;;3.80;2.63;;;4.70;1.00;;;;;;5035426;28;20198;-81
2021/03/06 09:43:05;;;;;;;3.75;2.67;;;4.90;1.00;;;;;;5033338;28;20715;-79
2021/03/06 09:45:31;;;;;;;4.67;2.40;;;;;;;;;;5033572;28;20184;-79
2021/03/06 09:48:05;;;;;;;2.05;1.95;;;5.00;1.00;;;;;;5039856;28;20407;-80
2021/03/06 09:50:31;;;;;;;2.97;2.20;;;;;;;;;;5033991;28;20412;-81
2021/03/06 09:52:57;;;;;;;4.20;2.40;;;;;;;;;;5033450;28;20395;-78
2021/03/06 09:55:23;;;;;;;5.05;2.42;;;5.10;1.00;;;;;;5032930;28;20388;-79
2021/03/06 09:57:49;;;;;;;5.37;2.43;;;;;;;;;;5032046;28;20275;-78
2021/03/06 10:00:23;;;;;;;2.70;1.87;;;5.10;1.00;;;;;;5031483;28;20183;-75
2021/03/06 10:02:50;;;;;;;2.75;1.90;;;5.10;1.00;;;;;;5039378;28;20457;-74
2021/03/06 10:05:21;;;;;;;2.60;1.73;;;5.20;1.00;;;;;;5036455;28;20182;-73
2021/03/06 10:07:47;;;;;;;4.13;2.17;;;;;;;;;;5052925;28;20414;-80
2021/03/06 10:10:13;;;;;;;2.27;2.07;;;;;;;;;;5042994;28;20494;-81
2021/03/06 10:12:43;;;;;;;3.65;1.75;;;5.40;1.00;;;;;;5033045;28;20391;-80
2021/03/06 10:15:11;;;;;;;2.40;1.83;;;5.50;1.00;;;;;;5032729;28;20173;-80
2021/03/06 10:17:37;;;;;;;3.40;2.00;;;;;;;;;;5032946;28;20414;-81
2021/03/06 10:20:03;;;;;;;6.00;2.47;;;5.80;1.00;;;;;;5032348;28;20391;-81
2021/03/06 10:22:29;;;;;;;1.37;1.27;;;;;;;;;;5038688;28;20561;-80
2021/03/06 10:24:57;;;;;;;3.90;1.63;;;6.00;1.00;;;;;;5050831;28;20425;-80
2021/03/06 10:27:32;;;;;;;5.33;2.33;;;6.00;1.00;;;;;;5051987;28;20881;-81
2021/03/06 10:30:23;;;;;;;3.67;1.90;;;6.00;1.00;;;;;;5051376;28;20397;-79
2021/03/06 10:33:02;;;;;;;1.60;1.50;;;6.10;1.00;;;;;;5052488;28;20473;-75
2021/03/06 10:35:29;;;;;;;1.33;1.23;;;6.10;1.00;;;;;;5040223;28;20499;-74
2021/03/06 10:37:55;;;;;;;1.53;1.43;;;;;;;;;;5033057;28;20235;-73
2021/03/06 10:40:38;;;;;;;1.27;1.17;;;6.20;1.00;;;;;;5032629;28;20421;-73
2021/03/06 10:43:05;;;;;;;1.43;1.33;;;6.30;1.00;;;;;;5033461;28;20509;-73
2021/03/06 10:45:31;;;;;;;3.57;1.83;;;;;;;;;;5043881;28;20414;-73
2021/03/06 10:48:02;;;;;;;2.57;1.50;;;6.30;1.00;;;;;;5033282;28;20379;-73
2021/03/06 10:50:33;;;;;;;1.30;1.20;;;6.30;1.00;;;;;;5049405;28;20906;-73
2021/03/06 10:53:17;;;;;;;2.50;1.97;;;6.40;1.00;;;;;;5053409;28;20398;-74
2021/03/06 10:55:52;;;;;;;2.70;1.77;;;;;;;;;;5053185;28;20785;-74
2021/03/06 10:58:39;;;;;;;1.67;1.57;;;6.50;1.00;;;;;;5053341;28;20734;-74
2021/03/06 11:01:05;;;;;;;2.37;2.07;;;6.50;1.00;;;;;;5049908;28;20453;-74
2021/03/06 11:03:46;;;;;;;5.00;1.97;;;6.60;1.00;;;;;;5033187;28;20392;-75
2021/03/06 11:06:12;;;;;;;3.20;1.93;;;6.30;1.00;;;;;;5033403;28;20589;-75
2021/03/06 11:08:39;;;;;;;3.70;1.73;;;6.30;1.00;;;;;;5042032;28;20410;-74
2021/03/06 11:11:07;;;;;;;2.83;1.80;;;6.30;1.00;;;;;;5057385;28;20477;-75
2021/03/06 11:13:51;;;;;;;3.17;1.90;;;6.50;1.00;;;;;;5056851;28;20422;-74
2021/03/06 11:16:34;;;;;;;3.23;2.10;;;6.60;1.00;;;;;;5056494;28;20449;-74
2021/03/06 11:19:00;;;;;;;5.57;2.63;;;;;;;;;;5052925;28;20432;-75
2021/03/06 11:21:26;;;;;;;2.50;1.60;;;;;;;;;;5055288;28;20548;-74
2021/03/06 11:23:57;;;;;;;1.90;1.70;;;6.70;1.00;;;;;;5052826;28;20508;-74
2021/03/06 11:26:22;;;;;;;2.17;1.90;;;6.70;1.00;;;;;;5036383;28;20502;-74
2021/03/06 11:28:48;;;;;;;6.23;2.10;;;6.90;1.00;;;;;;5035291;28;20867;-74
2021/03/06 11:31:21;;;;;;;2.17;1.80;;;;;;;;;;5035425;28;20614;-74
2021/03/06 11:33:47;;;;;;;2.60;1.90;;;7.30;1.00;;;;;;5036337;28;20423;-74
2021/03/06 11:36:13;;;;;;;2.73;2.10;;;7.20;1.00;;;;;;5037660;28;20394;-74
2021/03/06 11:38:39;;;;;;;1.70;1.53;;;;;;;;;;5043649;28;20184;-72
2021/03/06 11:41:05;;;;;;;1.53;1.30;;;;;;;;;;5036141;28;20485;-73
2021/03/06 11:43:31;;;;;;;3.20;1.80;;;;;;;;;;5036011;28;20388;-72
2021/03/06 11:45:58;;;;;;;12.23;3.23;;;7.30;1.00;;;;;;5051610;28;20487;-71
2021/03/06 11:48:24;;;;;;;1.40;1.30;;;7.50;1.00;;;;;;5048789;28;20518;-72
2021/03/06 11:50:50;;;;;;;4.40;1.90;;;7.60;1.00;;;;;;5052277;28;20825;-73
2021/03/06 11:53:24;;;;;;;1.63;1.53;;;7.60;1.00;;;;;;5056208;28;20213;-83
2021/03/06 11:55:50;;;;;;;2.23;1.57;;;;;;;;;;5051480;28;20511;-72
2021/03/06 11:58:16;;;;;;;3.70;1.77;;;;;;;;;;5047083;28;20490;-73
2021/03/06 12:00:42;;;;;;;1.70;1.60;;;7.70;1.00;;;;;;5034726;28;20396;-73
2021/03/06 12:03:08;;;;;;;2.00;1.80;;;7.50;1.00;;;;;;5039350;28;20454;-73
2021/03/06 12:05:34;;;;;;;2.93;1.93;;;7.50;1.00;;;;;;5049999;28;20406;-72
2021/03/06 12:08:03;;;;;;;3.20;1.77;;;;;;;;;;5051041;28;20199;-73
2021/03/06 12:10:30;;;;;;;3.50;1.83;;;7.40;1.00;;;;;;5034900;28;20431;-74
2021/03/06 12:12:57;;;;;;;3.37;2.13;;;7.50;1.00;;;;;;5040881;28;20437;-73
2021/03/06 12:15:24;;;;;;;1.93;1.83;;;7.60;1.00;;;;;;5053969;28;20422;-74
2021/03/06 12:17:52;;;;;;;1.70;1.57;;;7.70;1.00;;;;;;5055962;28;20883;-74
2021/03/06 12:20:21;;;;;;;2.93;1.70;;;7.70;1.00;;;;;;5053383;28;20411;-72
2021/03/06 12:22:47;;;;;;;3.00;2.60;;;7.60;1.00;;;;;;5042286;28;20481;-72
2021/03/06 12:25:21;;;;;;;3.80;1.93;;;7.80;1.00;;;;;;5041064;28;20477;-80
2021/03/06 12:27:46;;;;;;;2.00;1.60;;;7.80;1.00;;;;;;5058399;28;20967;-76
2021/03/06 12:30:17;;;;;;;4.00;2.07;;;7.70;1.00;;;;;;5075780;28;20394;-77
2021/03/06 12:32:57;;;;;;;6.00;2.13;;;7.90;1.00;;;;;;5048429;28;20274;-77
2021/03/06 12:35:27;;;;;;;3.40;2.40;;;7.70;1.00;;;;;;5035736;28;20391;-77
2021/03/06 12:37:52;;;;;;;2.57;2.10;;;7.70;1.00;;;;;;5035816;28;20387;-77
2021/03/06 12:40:21;;;;;;;5.97;2.40;;;7.80;1.00;;;;;;5046533;28;20395;-76
2021/03/06 12:43:14;;;;;;;1.40;1.30;;;7.80;1.00;;;;;;5055498;28;20183;-77
2021/03/06 12:45:51;;;;;;;4.10;2.20;;;7.90;1.00;;;;;;5055352;28;20375;-77
2021/03/06 12:48:17;;;;;;;2.47;2.00;;;8.10;1.00;;;;;;5063436;28;20515;-82
2021/03/06 12:50:45;;;;;;;3.67;1.60;;;8.10;1.00;;;;;;5075136;28;20389;-77
2021/03/06 12:53:11;;;;;;;3.77;2.10;;;;;;;;;;5058533;28;20982;-76
2021/03/06 12:55:39;;;;;;;3.40;2.47;;;8.00;1.00;;;;;;5053432;28;20410;-71
2021/03/06 12:58:04;;;;;;;1.97;1.80;;;7.90;1.00;;;;;;5053068;28;20517;-71
2021/03/06 13:00:31;;;;;;;1.70;1.60;;;;;;;;;;5046370;28;20430;-71
2021/03/06 13:02:58;;;;;;;2.20;1.83;;;;;;;;;;5034497;28;20223;-71
2021/03/06 13:05:24;;;;;;;2.10;1.90;;;8.10;1.00;;;;;;5043385;28;20757;-72
2021/03/06 13:07:51;;;;;;;2.80;1.80;;;8.30;1.00;;;;;;5054545;28;20436;-75
2021/03/06 13:10:17;;;;;;;1.80;1.70;;;8.30;1.00;;;;;;5054906;28;20410;-71
2021/03/06 13:12:44;;;;;;;5.80;2.80;;;;;;;;;;5050350;28;20426;-75
2021/03/06 13:15:10;;;;;;;4.50;1.97;;;;;;;;;;5045364;28;20423;-74
2021/03/06 13:17:46;;;;;;;3.63;2.13;;;8.30;1.00;;;;;;5038094;28;20449;-75
2021/03/06 13:20:13;;;;;;;1.60;1.50;;;8.40;1.00;;;;;;5041589;28;20965;-75
2021/03/06 13:22:38;;;;;;;1.70;1.60;;;8.50;1.00;;;;;;5046715;28;20961;-71
2021/03/06 13:25:09;;;;;;;4.50;1.90;;;8.60;1.00;;;;;;5048256;28;20427;-77
2021/03/06 13:27:36;;;;;;;2.70;1.70;;;8.50;1.00;;;;;;5038061;28;20271;-75
2021/03/06 13:30:05;;;;;;;3.77;1.73;;;8.70;1.00;;;;;;5034374;28;20457;-75
2021/03/06 13:32:31;;;;;;;2.83;1.80;;;;;;;;;;5053156;28;20897;-74
2021/03/06 13:35:05;;;;;;;2.00;1.80;;;8.80;1.00;;;;;;5053378;28;20462;-79
2021/03/06 13:37:30;;;;;;;2.70;2.03;;;8.60;1.00;;;;;;5042663;28;20821;-74